sensor_id;sensor_type;location;lat;lon;timestamp;temperature;humidity
37518;DHT22;23366;52.498;13.446;2022-08-21T00:00:23;21.00;99.90
37518;DHT22;23366;52.498;13.446;2022-08-21T00:02:59;21.00;99.90
37518;DHT22;23366;52.498;13.446;2022-08-21T00:05:27;21.00;99.90
37518;DHT22;23366;52.498;13.446;2022-08-21T00:07:53;21.00;99.90
37518;DHT22;23366;52.498;13.446;2022-08-21T00:10:19;20.90;99.90
37518;DHT22;23366;52.498;13.446;2022-08-21T00:12:45;20.90;99.90
37518;DHT22;23366;52.498;13.446;2022-08-21T00:15:18;20.90;99.90
37518;DHT22;23366;52.498;13.446;2022-08-21T00:17:44;20.90;99.90
37518;DHT22;23366;52.498;13.446;2022-08-21T00:20:12;20.90;99.90
37518;DHT22;23366;52.498;13.446;2022-08-21T00:22:38;20.80;99.90
37518;DHT22;23366;52.498;13.446;2022-08-21T00:25:05;20.80;99.90
37518;DHT22;23366;52.498;13.446;2022-08-21T00:27:32;20.80;99.90
37518;DHT22;23366;52.498;13.446;2022-08-21T00:29:58;20.80;99.90
37518;DHT22;23366;52.498;13.446;2022-08-21T00:32:25;20.80;99.90
37518;DHT22;23366;52.498;13.446;2022-08-21T00:34:51;20.80;99.90
37518;DHT22;23366;52.498;13.446;2022-08-21T00:37:16;20.80;99.90
37518;DHT22;23366;52.498;13.446;2022-08-21T00:39:42;20.70;99.90
37518;DHT22;23366;52.498;13.446;2022-08-21T00:42:09;20.70;99.90
37518;DHT22;23366;52.498;13.446;2022-08-21T00:44:34;20.70;99.90
37518;DHT22;23366;52.498;13.446;2022-08-21T00:47:00;20.70;99.90
37518;DHT22;23366;52.498;13.446;2022-08-21T00:49:26;20.70;99.90
37518;DHT22;23366;52.498;13.446;2022-08-21T00:51:57;20.70;99.90
37518;DHT22;23366;52.498;13.446;2022-08-21T00:54:26;20.60;99.90
37518;DHT22;23366;52.498;13.446;2022-08-21T00:57:14;20.60;99.90
37518;DHT22;23366;52.498;13.446;2022-08-21T00:59:44;20.60;99.90
37518;DHT22;23366;52.498;13.446;2022-08-21T01:02:11;20.70;99.90
37518;DHT22;23366;52.498;13.446;2022-08-21T01:04:38;20.60;99.90
37518;DHT22;23366;52.498;13.446;2022-08-21T01:07:04;20.60;99.90
37518;DHT22;23366;52.498;13.446;2022-08-21T01:09:30;20.60;99.90
37518;DHT22;23366;52.498;13.446;2022-08-21T01:11:56;20.60;99.90
37518;DHT22;23366;52.498;13.446;2022-08-21T01:14:22;20.60;99.90
37518;DHT22;23366;52.498;13.446;2022-08-21T01:16:50;20.60;99.90
37518;DHT22;23366;52.498;13.446;2022-08-21T01:19:18;20.50;99.90
37518;DHT22;23366;52.498;13.446;2022-08-21T01:21:44;20.50;99.90
37518;DHT22;23366;52.498;13.446;2022-08-21T01:24:11;20.50;99.90
37518;DHT22;23366;52.498;13.446;2022-08-21T01:26:37;20.50;99.90
37518;DHT22;23366;52.498;13.446;2022-08-21T01:29:05;20.50;99.90
37518;DHT22;23366;52.498;13.446;2022-08-21T01:31:32;20.50;99.90
37518;DHT22;23366;52.498;13.446;2022-08-21T01:33:59;20.50;99.90
37518;DHT22;23366;52.498;13.446;2022-08-21T01:36:25;20.40;99.90
37518;DHT22;23366;52.498;13.446;2022-08-21T01:38:51;20.40;99.90
37518;DHT22;23366;52.498;13.446;2022-08-21T01:41:17;20.40;99.90
37518;DHT22;23366;52.498;13.446;2022-08-21T01:43:43;20.40;99.90
37518;DHT22;23366;52.498;13.446;2022-08-21T01:46:10;20.40;99.90
37518;DHT22;23366;52.498;13.446;2022-08-21T01:48:37;20.30;99.90
37518;DHT22;23366;52.498;13.446;2022-08-21T01:51:04;20.30;99.90
37518;DHT22;23366;52.498;13.446;2022-08-21T01:53:30;20.30;99.90
37518;DHT22;23366;52.498;13.446;2022-08-21T01:55:55;20.30;99.90
37518;DHT22;23366;52.498;13.446;2022-08-21T01:58:21;20.20;99.90
37518;DHT22;23366;52.498;13.446;2022-08-21T02:00:46;20.20;99.90
37518;DHT22;23366;52.498;13.446;2022-08-21T02:03:12;20.20;99.90
37518;DHT22;23366;52.498;13.446;2022-08-21T02:05:38;20.20;99.90
37518;DHT22;23366;52.498;13.446;2022-08-21T02:08:05;20.10;99.90
37518;DHT22;23366;52.498;13.446;2022-08-21T02:10:33;20.10;99.90
37518;DHT22;23366;52.498;13.446;2022-08-21T02:12:59;20.10;99.90
37518;DHT22;23366;52.498;13.446;2022-08-21T02:15:26;20.00;99.90
37518;DHT22;23366;52.498;13.446;2022-08-21T02:17:54;20.10;99.90
37518;DHT22;23366;52.498;13.446;2022-08-21T02:20:28;20.00;99.90
37518;DHT22;23366;52.498;13.446;2022-08-21T02:22:54;20.00;99.90
37518;DHT22;23366;52.498;13.446;2022-08-21T02:25:21;20.00;99.90
37518;DHT22;23366;52.498;13.446;2022-08-21T02:27:47;19.90;99.90
37518;DHT22;23366;52.498;13.446;2022-08-21T02:30:17;19.90;99.90
37518;DHT22;23366;52.498;13.446;2022-08-21T02:32:42;20.00;99.90
37518;DHT22;23366;52.498;13.446;2022-08-21T02:35:09;20.00;99.90
37518;DHT22;23366;52.498;13.446;2022-08-21T02:37:43;20.00;99.90
37518;DHT22;23366;52.498;13.446;2022-08-21T02:40:10;19.90;99.90
37518;DHT22;23366;52.498;13.446;2022-08-21T02:42:36;19.90;99.90
37518;DHT22;23366;52.498;13.446;2022-08-21T02:45:03;19.90;99.90
37518;DHT22;23366;52.498;13.446;2022-08-21T02:47:28;19.80;99.90
37518;DHT22;23366;52.498;13.446;2022-08-21T02:49:54;19.80;99.90
37518;DHT22;23366;52.498;13.446;2022-08-21T02:52:19;19.90;99.90
37518;DHT22;23366;52.498;13.446;2022-08-21T02:54:47;19.90;99.90
37518;DHT22;23366;52.498;13.446;2022-08-21T02:57:12;19.80;99.90
37518;DHT22;23366;52.498;13.446;2022-08-21T02:59:38;19.80;99.90
37518;DHT22;23366;52.498;13.446;2022-08-21T03:02:04;19.80;99.90
37518;DHT22;23366;52.498;13.446;2022-08-21T03:04:30;19.80;99.90
37518;DHT22;23366;52.498;13.446;2022-08-21T03:06:55;19.80;99.90
37518;DHT22;23366;52.498;13.446;2022-08-21T03:09:21;19.80;99.90
37518;DHT22;23366;52.498;13.446;2022-08-21T03:11:46;19.70;99.90
37518;DHT22;23366;52.498;13.446;2022-08-21T03:14:12;19.70;99.90
37518;DHT22;23366;52.498;13.446;2022-08-21T03:16:38;19.70;99.90
37518;DHT22;23366;52.498;13.446;2022-08-21T03:19:03;19.70;99.90
37518;DHT22;23366;52.498;13.446;2022-08-21T03:21:29;19.60;99.90
37518;DHT22;23366;52.498;13.446;2022-08-21T03:23:55;19.60;99.90
37518;DHT22;23366;52.498;13.446;2022-08-21T03:26:21;19.60;99.90
37518;DHT22;23366;52.498;13.446;2022-08-21T03:28:46;19.60;99.90
37518;DHT22;23366;52.498;13.446;2022-08-21T03:31:12;19.60;99.90
37518;DHT22;23366;52.498;13.446;2022-08-21T03:33:38;19.50;99.90
37518;DHT22;23366;52.498;13.446;2022-08-21T03:36:06;19.50;99.90
37518;DHT22;23366;52.498;13.446;2022-08-21T03:38:34;19.50;99.90
37518;DHT22;23366;52.498;13.446;2022-08-21T03:41:00;19.50;99.90
37518;DHT22;23366;52.498;13.446;2022-08-21T03:43:27;19.50;99.90
37518;DHT22;23366;52.498;13.446;2022-08-21T03:45:53;19.50;99.90
37518;DHT22;23366;52.498;13.446;2022-08-21T03:48:19;19.50;99.90
37518;DHT22;23366;52.498;13.446;2022-08-21T03:50:44;19.40;99.90
37518;DHT22;23366;52.498;13.446;2022-08-21T03:53:13;19.40;99.90
37518;DHT22;23366;52.498;13.446;2022-08-21T03:55:39;19.40;99.90
37518;DHT22;23366;52.498;13.446;2022-08-21T03:58:04;19.40;99.90
37518;DHT22;23366;52.498;13.446;2022-08-21T04:00:30;19.40;99.90
37518;DHT22;23366;52.498;13.446;2022-08-21T04:02:56;19.30;99.90
37518;DHT22;23366;52.498;13.446;2022-08-21T04:05:22;19.40;99.90
37518;DHT22;23366;52.498;13.446;2022-08-21T04:08:02;19.30;99.90
37518;DHT22;23366;52.498;13.446;2022-08-21T04:10:30;19.30;99.90
37518;DHT22;23366;52.498;13.446;2022-08-21T04:12:57;19.30;99.90
37518;DHT22;23366;52.498;13.446;2022-08-21T04:15:24;19.30;99.90
37518;DHT22;23366;52.498;13.446;2022-08-21T04:17:50;19.30;99.90
37518;DHT22;23366;52.498;13.446;2022-08-21T04:20:20;19.30;99.90
37518;DHT22;23366;52.498;13.446;2022-08-21T04:22:47;19.30;99.90
37518;DHT22;23366;52.498;13.446;2022-08-21T04:25:14;19.30;99.90
37518;DHT22;23366;52.498;13.446;2022-08-21T04:27:41;19.30;99.90
37518;DHT22;23366;52.498;13.446;2022-08-21T04:30:08;19.30;99.90
37518;DHT22;23366;52.498;13.446;2022-08-21T04:32:34;19.30;99.90
37518;DHT22;23366;52.498;13.446;2022-08-21T04:35:06;19.30;99.90
37518;DHT22;23366;52.498;13.446;2022-08-21T04:37:32;19.40;99.90
37518;DHT22;23366;52.498;13.446;2022-08-21T04:39:57;19.40;99.90
37518;DHT22;23366;52.498;13.446;2022-08-21T04:42:25;19.40;99.90
37518;DHT22;23366;52.498;13.446;2022-08-21T04:44:51;19.40;99.90
37518;DHT22;23366;52.498;13.446;2022-08-21T04:47:17;19.40;99.90
37518;DHT22;23366;52.498;13.446;2022-08-21T04:49:43;19.40;99.90
37518;DHT22;23366;52.498;13.446;2022-08-21T04:52:11;19.40;99.90
37518;DHT22;23366;52.498;13.446;2022-08-21T04:54:38;19.50;99.90
37518;DHT22;23366;52.498;13.446;2022-08-21T04:57:07;19.50;99.90
37518;DHT22;23366;52.498;13.446;2022-08-21T04:59:43;19.50;99.90
37518;DHT22;23366;52.498;13.446;2022-08-21T05:02:10;19.50;99.90
37518;DHT22;23366;52.498;13.446;2022-08-21T05:04:38;19.50;99.90
37518;DHT22;23366;52.498;13.446;2022-08-21T05:07:09;19.50;99.90
37518;DHT22;23366;52.498;13.446;2022-08-21T05:09:37;19.50;99.90
37518;DHT22;23366;52.498;13.446;2022-08-21T05:12:03;19.60;99.90
37518;DHT22;23366;52.498;13.446;2022-08-21T05:14:29;19.60;99.90
37518;DHT22;23366;52.498;13.446;2022-08-21T05:16:55;19.70;99.90
37518;DHT22;23366;52.498;13.446;2022-08-21T05:19:20;19.70;99.90
37518;DHT22;23366;52.498;13.446;2022-08-21T05:21:46;19.70;99.90
37518;DHT22;23366;52.498;13.446;2022-08-21T05:24:13;19.70;99.90
37518;DHT22;23366;52.498;13.446;2022-08-21T05:26:39;19.80;99.90
37518;DHT22;23366;52.498;13.446;2022-08-21T05:29:05;19.80;99.90
37518;DHT22;23366;52.498;13.446;2022-08-21T05:31:31;19.90;99.90
37518;DHT22;23366;52.498;13.446;2022-08-21T05:33:57;19.90;99.90
37518;DHT22;23366;52.498;13.446;2022-08-21T05:36:23;19.90;99.90
37518;DHT22;23366;52.498;13.446;2022-08-21T05:38:48;20.00;99.90
37518;DHT22;23366;52.498;13.446;2022-08-21T05:41:14;20.00;99.90
37518;DHT22;23366;52.498;13.446;2022-08-21T05:43:40;20.00;99.90
37518;DHT22;23366;52.498;13.446;2022-08-21T05:46:06;20.10;99.90
37518;DHT22;23366;52.498;13.446;2022-08-21T05:48:33;20.10;99.90
37518;DHT22;23366;52.498;13.446;2022-08-21T05:51:12;20.10;99.90
37518;DHT22;23366;52.498;13.446;2022-08-21T05:53:39;20.20;99.90
37518;DHT22;23366;52.498;13.446;2022-08-21T05:56:05;20.20;99.90
37518;DHT22;23366;52.498;13.446;2022-08-21T05:58:33;20.20;99.90
37518;DHT22;23366;52.498;13.446;2022-08-21T06:00:59;20.20;99.90
37518;DHT22;23366;52.498;13.446;2022-08-21T06:03:33;20.30;99.90
37518;DHT22;23366;52.498;13.446;2022-08-21T06:05:59;20.30;99.90
37518;DHT22;23366;52.498;13.446;2022-08-21T06:08:25;20.40;99.90
37518;DHT22;23366;52.498;13.446;2022-08-21T06:10:53;20.40;99.90
37518;DHT22;23366;52.498;13.446;2022-08-21T06:13:20;20.50;99.90
37518;DHT22;23366;52.498;13.446;2022-08-21T06:15:46;20.50;99.90
37518;DHT22;23366;52.498;13.446;2022-08-21T06:18:12;20.60;99.90
37518;DHT22;23366;52.498;13.446;2022-08-21T06:20:38;20.70;99.90
37518;DHT22;23366;52.498;13.446;2022-08-21T06:23:04;20.70;99.90
37518;DHT22;23366;52.498;13.446;2022-08-21T06:25:30;20.80;99.90
37518;DHT22;23366;52.498;13.446;2022-08-21T06:28:07;20.90;99.90
37518;DHT22;23366;52.498;13.446;2022-08-21T06:30:34;21.00;99.90
37518;DHT22;23366;52.498;13.446;2022-08-21T06:33:00;21.10;99.90
37518;DHT22;23366;52.498;13.446;2022-08-21T06:35:25;21.20;99.90
37518;DHT22;23366;52.498;13.446;2022-08-21T06:37:51;21.30;99.90
37518;DHT22;23366;52.498;13.446;2022-08-21T06:40:17;21.40;99.90
37518;DHT22;23366;52.498;13.446;2022-08-21T06:42:43;21.50;99.90
37518;DHT22;23366;52.498;13.446;2022-08-21T06:45:09;21.60;99.90
37518;DHT22;23366;52.498;13.446;2022-08-21T06:47:35;21.80;99.90
37518;DHT22;23366;52.498;13.446;2022-08-21T06:50:01;22.00;99.90
37518;DHT22;23366;52.498;13.446;2022-08-21T06:52:26;22.10;99.90
37518;DHT22;23366;52.498;13.446;2022-08-21T06:54:52;22.30;99.90
37518;DHT22;23366;52.498;13.446;2022-08-21T06:57:17;22.40;99.90
37518;DHT22;23366;52.498;13.446;2022-08-21T06:59:43;22.60;99.90
37518;DHT22;23366;52.498;13.446;2022-08-21T07:02:10;22.80;99.90
37518;DHT22;23366;52.498;13.446;2022-08-21T07:04:36;23.00;99.90
37518;DHT22;23366;52.498;13.446;2022-08-21T07:07:02;23.20;99.90
37518;DHT22;23366;52.498;13.446;2022-08-21T07:09:27;23.40;99.90
37518;DHT22;23366;52.498;13.446;2022-08-21T07:11:56;23.70;99.90
37518;DHT22;23366;52.498;13.446;2022-08-21T07:14:22;23.90;99.90
37518;DHT22;23366;52.498;13.446;2022-08-21T07:16:48;24.30;99.90
37518;DHT22;23366;52.498;13.446;2022-08-21T07:19:14;24.60;99.90
37518;DHT22;23366;52.498;13.446;2022-08-21T07:21:40;24.80;99.30
37518;DHT22;23366;52.498;13.446;2022-08-21T07:24:06;25.00;98.80
37518;DHT22;23366;52.498;13.446;2022-08-21T07:26:31;25.30;98.10
37518;DHT22;23366;52.498;13.446;2022-08-21T07:29:00;25.50;97.30
37518;DHT22;23366;52.498;13.446;2022-08-21T07:31:26;25.80;96.80
37518;DHT22;23366;52.498;13.446;2022-08-21T07:33:52;26.00;96.00
37518;DHT22;23366;52.498;13.446;2022-08-21T07:36:17;26.10;94.80
37518;DHT22;23366;52.498;13.446;2022-08-21T07:38:43;26.20;94.40
37518;DHT22;23366;52.498;13.446;2022-08-21T07:41:25;26.40;94.30
37518;DHT22;23366;52.498;13.446;2022-08-21T07:43:51;26.70;93.80
37518;DHT22;23366;52.498;13.446;2022-08-21T07:46:17;27.00;93.30
37518;DHT22;23366;52.498;13.446;2022-08-21T07:48:43;27.30;92.20
37518;DHT22;23366;52.498;13.446;2022-08-21T07:51:13;27.60;91.40
37518;DHT22;23366;52.498;13.446;2022-08-21T07:53:39;27.90;89.50
37518;DHT22;23366;52.498;13.446;2022-08-21T07:56:06;28.10;86.90
37518;DHT22;23366;52.498;13.446;2022-08-21T07:58:32;28.20;85.20
37518;DHT22;23366;52.498;13.446;2022-08-21T08:00:58;28.40;83.80
37518;DHT22;23366;52.498;13.446;2022-08-21T08:03:23;28.60;82.60
37518;DHT22;23366;52.498;13.446;2022-08-21T08:05:50;28.90;81.00
37518;DHT22;23366;52.498;13.446;2022-08-21T08:08:16;29.40;80.60
37518;DHT22;23366;52.498;13.446;2022-08-21T08:10:42;29.60;79.20
37518;DHT22;23366;52.498;13.446;2022-08-21T08:13:09;29.70;77.30
37518;DHT22;23366;52.498;13.446;2022-08-21T08:15:35;30.00;76.20
37518;DHT22;23366;52.498;13.446;2022-08-21T08:18:04;30.20;74.30
37518;DHT22;23366;52.498;13.446;2022-08-21T08:20:37;30.30;72.70
37518;DHT22;23366;52.498;13.446;2022-08-21T08:23:13;30.00;71.00
37518;DHT22;23366;52.498;13.446;2022-08-21T08:25:39;30.10;70.90
37518;DHT22;23366;52.498;13.446;2022-08-21T08:28:05;30.50;71.20
37518;DHT22;23366;52.498;13.446;2022-08-21T08:30:31;30.90;69.80
37518;DHT22;23366;52.498;13.446;2022-08-21T08:32:57;31.00;68.30
37518;DHT22;23366;52.498;13.446;2022-08-21T08:35:23;31.30;68.00
37518;DHT22;23366;52.498;13.446;2022-08-21T08:37:50;31.50;66.80
37518;DHT22;23366;52.498;13.446;2022-08-21T08:40:44;32.30;65.20
37518;DHT22;23366;52.498;13.446;2022-08-21T08:43:12;32.50;62.90
37518;DHT22;23366;52.498;13.446;2022-08-21T08:45:42;32.00;62.30
37518;DHT22;23366;52.498;13.446;2022-08-21T08:48:10;31.60;62.50
37518;DHT22;23366;52.498;13.446;2022-08-21T08:50:49;30.90;63.10
37518;DHT22;23366;52.498;13.446;2022-08-21T08:53:23;30.20;65.20
37518;DHT22;23366;52.498;13.446;2022-08-21T08:55:51;29.90;67.10
37518;DHT22;23366;52.498;13.446;2022-08-21T08:58:32;29.50;66.90
37518;DHT22;23366;52.498;13.446;2022-08-21T09:00:58;29.20;67.80
37518;DHT22;23366;52.498;13.446;2022-08-21T09:03:26;28.60;67.10
37518;DHT22;23366;52.498;13.446;2022-08-21T09:06:18;28.20;69.10
37518;DHT22;23366;52.498;13.446;2022-08-21T09:11:49;27.80;72.80
37518;DHT22;23366;52.498;13.446;2022-08-21T09:14:30;27.60;72.10
37518;DHT22;23366;52.498;13.446;2022-08-21T09:17:13;27.50;73.00
37518;DHT22;23366;52.498;13.446;2022-08-21T09:23:18;27.10;72.80
37518;DHT22;23366;52.498;13.446;2022-08-21T09:26:07;26.90;73.20
37518;DHT22;23366;52.498;13.446;2022-08-21T09:28:36;26.70;73.60
37518;DHT22;23366;52.498;13.446;2022-08-21T09:33:40;26.50;74.10
37518;DHT22;23366;52.498;13.446;2022-08-21T09:36:06;26.40;74.90
37518;DHT22;23366;52.498;13.446;2022-08-21T09:38:34;26.30;75.00
37518;DHT22;23366;52.498;13.446;2022-08-21T09:41:08;26.20;75.30
37518;DHT22;23366;52.498;13.446;2022-08-21T09:43:34;26.20;75.20
37518;DHT22;23366;52.498;13.446;2022-08-21T09:46:12;26.20;75.30
37518;DHT22;23366;52.498;13.446;2022-08-21T09:48:50;26.20;74.70
37518;DHT22;23366;52.498;13.446;2022-08-21T09:51:49;26.30;75.00
37518;DHT22;23366;52.498;13.446;2022-08-21T09:56:59;26.50;75.30
37518;DHT22;23366;52.498;13.446;2022-08-21T09:59:44;26.60;74.80
37518;DHT22;23366;52.498;13.446;2022-08-21T10:02:27;26.70;73.10
37518;DHT22;23366;52.498;13.446;2022-08-21T10:05:01;26.80;72.60
37518;DHT22;23366;52.498;13.446;2022-08-21T10:07:30;26.90;73.60
37518;DHT22;23366;52.498;13.446;2022-08-21T10:10:17;26.90;73.00
37518;DHT22;23366;52.498;13.446;2022-08-21T10:15:38;27.00;71.30
37518;DHT22;23366;52.498;13.446;2022-08-21T10:18:30;26.90;70.00
37518;DHT22;23366;52.498;13.446;2022-08-21T10:24:19;27.10;71.40
37518;DHT22;23366;52.498;13.446;2022-08-21T10:26:57;27.00;69.00
37518;DHT22;23366;52.498;13.446;2022-08-21T10:29:47;26.90;69.70
37518;DHT22;23366;52.498;13.446;2022-08-21T10:32:24;27.00;71.20
37518;DHT22;23366;52.498;13.446;2022-08-21T10:35:07;27.10;71.70
37518;DHT22;23366;52.498;13.446;2022-08-21T10:40:39;27.30;72.30
37518;DHT22;23366;52.498;13.446;2022-08-21T10:43:28;27.40;72.20
37518;DHT22;23366;52.498;13.446;2022-08-21T10:48:45;27.50;70.00
37518;DHT22;23366;52.498;13.446;2022-08-21T10:51:54;27.50;69.60
37518;DHT22;23366;52.498;13.446;2022-08-21T10:54:54;27.60;70.10
37518;DHT22;23366;52.498;13.446;2022-08-21T10:57:54;27.50;70.70
37518;DHT22;23366;52.498;13.446;2022-08-21T11:00:24;27.60;70.80
37518;DHT22;23366;52.498;13.446;2022-08-21T11:03:12;27.40;68.40
37518;DHT22;23366;52.498;13.446;2022-08-21T11:05:50;27.40;69.20
37518;DHT22;23366;52.498;13.446;2022-08-21T11:08:31;27.40;68.70
37518;DHT22;23366;52.498;13.446;2022-08-21T11:11:10;27.40;68.70
37518;DHT22;23366;52.498;13.446;2022-08-21T11:13:50;27.30;68.50
37518;DHT22;23366;52.498;13.446;2022-08-21T11:18:59;27.40;69.70
37518;DHT22;23366;52.498;13.446;2022-08-21T11:21:34;27.50;68.20
37518;DHT22;23366;52.498;13.446;2022-08-21T11:24:22;27.50;67.70
37518;DHT22;23366;52.498;13.446;2022-08-21T11:27:18;27.40;67.00
37518;DHT22;23366;52.498;13.446;2022-08-21T11:29:48;27.30;66.40
37518;DHT22;23366;52.498;13.446;2022-08-21T11:32:23;27.20;65.40
37518;DHT22;23366;52.498;13.446;2022-08-21T11:37:57;27.20;66.40
37518;DHT22;23366;52.498;13.446;2022-08-21T11:43:46;26.80;63.10
37518;DHT22;23366;52.498;13.446;2022-08-21T11:46:39;27.00;65.90
37518;DHT22;23366;52.498;13.446;2022-08-21T11:49:22;27.30;66.00
37518;DHT22;23366;52.498;13.446;2022-08-21T11:51:53;27.60;66.10
37518;DHT22;23366;52.498;13.446;2022-08-21T11:54:35;27.80;65.00
37518;DHT22;23366;52.498;13.446;2022-08-21T11:57:05;27.80;62.30
37518;DHT22;23366;52.498;13.446;2022-08-21T11:59:45;27.70;60.10
37518;DHT22;23366;52.498;13.446;2022-08-21T12:05:27;27.80;60.20
37518;DHT22;23366;52.498;13.446;2022-08-21T12:08:44;27.80;59.80
37518;DHT22;23366;52.498;13.446;2022-08-21T12:16:40;26.80;62.10
37518;DHT22;23366;52.498;13.446;2022-08-21T12:27:30;27.10;63.20
37518;DHT22;23366;52.498;13.446;2022-08-21T12:30:02;27.10;63.30
37518;DHT22;23366;52.498;13.446;2022-08-21T12:35:26;27.30;61.90
37518;DHT22;23366;52.498;13.446;2022-08-21T12:37:57;27.40;62.40
37518;DHT22;23366;52.498;13.446;2022-08-21T12:40:30;27.50;60.40
37518;DHT22;23366;52.498;13.446;2022-08-21T12:42:59;27.50;59.70
37518;DHT22;23366;52.498;13.446;2022-08-21T12:45:42;27.60;60.20
37518;DHT22;23366;52.498;13.446;2022-08-21T12:50:56;27.70;61.20
37518;DHT22;23366;52.498;13.446;2022-08-21T12:56:36;27.40;62.00
37518;DHT22;23366;52.498;13.446;2022-08-21T12:59:11;27.40;62.00
37518;DHT22;23366;52.498;13.446;2022-08-21T13:01:49;27.20;61.60
37518;DHT22;23366;52.498;13.446;2022-08-21T13:04:20;27.10;61.80
37518;DHT22;23366;52.498;13.446;2022-08-21T13:06:49;27.00;61.10
37518;DHT22;23366;52.498;13.446;2022-08-21T13:09:23;26.90;62.60
37518;DHT22;23366;52.498;13.446;2022-08-21T13:11:50;26.60;61.70
37518;DHT22;23366;52.498;13.446;2022-08-21T13:14:39;26.50;61.80
37518;DHT22;23366;52.498;13.446;2022-08-21T13:17:07;26.20;62.70
37518;DHT22;23366;52.498;13.446;2022-08-21T13:19:33;26.10;61.60
37518;DHT22;23366;52.498;13.446;2022-08-21T13:22:03;25.90;63.40
37518;DHT22;23366;52.498;13.446;2022-08-21T13:24:34;25.80;63.70
37518;DHT22;23366;52.498;13.446;2022-08-21T13:27:00;25.80;64.10
37518;DHT22;23366;52.498;13.446;2022-08-21T13:29:33;25.60;63.30
37518;DHT22;23366;52.498;13.446;2022-08-21T13:32:02;25.60;64.50
37518;DHT22;23366;52.498;13.446;2022-08-21T13:34:34;25.60;64.30
37518;DHT22;23366;52.498;13.446;2022-08-21T13:37:04;25.60;65.60
37518;DHT22;23366;52.498;13.446;2022-08-21T13:39:30;25.60;65.70
37518;DHT22;23366;52.498;13.446;2022-08-21T13:41:59;25.80;65.60
37518;DHT22;23366;52.498;13.446;2022-08-21T13:44:42;25.80;64.40
37518;DHT22;23366;52.498;13.446;2022-08-21T13:47:12;25.70;64.80
37518;DHT22;23366;52.498;13.446;2022-08-21T13:49:47;25.70;64.60
37518;DHT22;23366;52.498;13.446;2022-08-21T13:52:22;25.70;66.10
37518;DHT22;23366;52.498;13.446;2022-08-21T13:55:09;25.70;66.80
37518;DHT22;23366;52.498;13.446;2022-08-21T13:57:35;25.70;66.50
37518;DHT22;23366;52.498;13.446;2022-08-21T14:00:12;25.70;66.40
37518;DHT22;23366;52.498;13.446;2022-08-21T14:02:42;25.70;66.80
37518;DHT22;23366;52.498;13.446;2022-08-21T14:05:16;25.80;67.00
37518;DHT22;23366;52.498;13.446;2022-08-21T14:07:45;25.70;66.60
37518;DHT22;23366;52.498;13.446;2022-08-21T14:10:20;25.70;67.70
37518;DHT22;23366;52.498;13.446;2022-08-21T14:12:47;25.50;67.60
37518;DHT22;23366;52.498;13.446;2022-08-21T14:15:16;25.40;67.80
37518;DHT22;23366;52.498;13.446;2022-08-21T14:17:42;25.30;68.30
37518;DHT22;23366;52.498;13.446;2022-08-21T14:20:12;25.20;68.60
37518;DHT22;23366;52.498;13.446;2022-08-21T14:22:43;25.10;69.00
37518;DHT22;23366;52.498;13.446;2022-08-21T14:28:02;25.00;69.50
37518;DHT22;23366;52.498;13.446;2022-08-21T14:30:32;24.90;70.60
37518;DHT22;23366;52.498;13.446;2022-08-21T14:32:59;24.90;71.20
37518;DHT22;23366;52.498;13.446;2022-08-21T14:35:25;24.90;70.70
37518;DHT22;23366;52.498;13.446;2022-08-21T14:37:51;24.80;71.90
37518;DHT22;23366;52.498;13.446;2022-08-21T14:40:18;24.80;71.40
37518;DHT22;23366;52.498;13.446;2022-08-21T14:42:45;24.70;71.20
37518;DHT22;23366;52.498;13.446;2022-08-21T14:45:27;24.70;70.80
37518;DHT22;23366;52.498;13.446;2022-08-21T14:47:54;24.60;71.70
37518;DHT22;23366;52.498;13.446;2022-08-21T14:50:20;24.50;72.30
37518;DHT22;23366;52.498;13.446;2022-08-21T14:52:46;24.50;72.70
37518;DHT22;23366;52.498;13.446;2022-08-21T14:55:13;24.40;72.50
37518;DHT22;23366;52.498;13.446;2022-08-21T14:57:49;24.40;72.40
37518;DHT22;23366;52.498;13.446;2022-08-21T15:00:18;24.40;73.00
37518;DHT22;23366;52.498;13.446;2022-08-21T15:02:45;24.30;73.40
37518;DHT22;23366;52.498;13.446;2022-08-21T15:05:10;24.30;72.90
37518;DHT22;23366;52.498;13.446;2022-08-21T15:07:36;24.30;73.20
37518;DHT22;23366;52.498;13.446;2022-08-21T15:10:04;24.30;74.10
37518;DHT22;23366;52.498;13.446;2022-08-21T15:12:30;24.20;75.00
37518;DHT22;23366;52.498;13.446;2022-08-21T15:14:55;24.20;74.50
37518;DHT22;23366;52.498;13.446;2022-08-21T15:17:21;24.30;75.60
37518;DHT22;23366;52.498;13.446;2022-08-21T15:19:47;24.30;75.40
37518;DHT22;23366;52.498;13.446;2022-08-21T15:22:12;24.30;75.90
37518;DHT22;23366;52.498;13.446;2022-08-21T15:24:38;24.30;74.80
37518;DHT22;23366;52.498;13.446;2022-08-21T15:27:06;24.30;74.30
37518;DHT22;23366;52.498;13.446;2022-08-21T15:29:33;24.30;73.70
37518;DHT22;23366;52.498;13.446;2022-08-21T15:32:03;24.20;75.40
37518;DHT22;23366;52.498;13.446;2022-08-21T15:34:39;24.30;75.40
37518;DHT22;23366;52.498;13.446;2022-08-21T15:37:05;24.30;75.40
37518;DHT22;23366;52.498;13.446;2022-08-21T15:39:34;24.30;74.80
37518;DHT22;23366;52.498;13.446;2022-08-21T15:42:00;24.30;74.00
37518;DHT22;23366;52.498;13.446;2022-08-21T15:44:27;24.20;74.90
37518;DHT22;23366;52.498;13.446;2022-08-21T15:46:53;24.10;75.70
37518;DHT22;23366;52.498;13.446;2022-08-21T15:49:19;24.10;76.10
37518;DHT22;23366;52.498;13.446;2022-08-21T15:51:44;24.10;76.40
37518;DHT22;23366;52.498;13.446;2022-08-21T15:54:10;24.10;79.20
37518;DHT22;23366;52.498;13.446;2022-08-21T15:56:39;24.10;77.00
37518;DHT22;23366;52.498;13.446;2022-08-21T15:59:09;24.00;78.50
37518;DHT22;23366;52.498;13.446;2022-08-21T16:01:37;24.00;78.10
37518;DHT22;23366;52.498;13.446;2022-08-21T16:04:04;23.90;77.80
37518;DHT22;23366;52.498;13.446;2022-08-21T16:06:30;23.90;78.90
37518;DHT22;23366;52.498;13.446;2022-08-21T16:08:55;23.80;76.80
37518;DHT22;23366;52.498;13.446;2022-08-21T16:11:21;23.70;76.10
37518;DHT22;23366;52.498;13.446;2022-08-21T16:13:47;23.60;77.50
37518;DHT22;23366;52.498;13.446;2022-08-21T16:16:19;23.60;78.30
37518;DHT22;23366;52.498;13.446;2022-08-21T16:18:46;23.60;78.70
37518;DHT22;23366;52.498;13.446;2022-08-21T16:21:12;23.50;79.50
37518;DHT22;23366;52.498;13.446;2022-08-21T16:23:38;23.50;78.80
37518;DHT22;23366;52.498;13.446;2022-08-21T16:26:06;23.40;78.30
37518;DHT22;23366;52.498;13.446;2022-08-21T16:28:35;23.40;78.10
37518;DHT22;23366;52.498;13.446;2022-08-21T16:31:02;23.40;78.80